Time;durP1;ratioP1;P1;durP2;ratioP2;P2;SDS_P1;SDS_P2;PMS_P1;PMS_P2;Temp;Humidity;BMP_temperature;BMP_pressure;BME280_temperature;BME280_humidity;BME280_pressure;Samples;Min_cycle;Max_cycle;Signal;HPM_P1;HPM_P2
2024/03/06 00:00:48;;;;;;;;;;;;;;;23.65;46.02;94133.09;5027374;28;8976;-63
2024/03/06 00:03:27;;;;;;;;;;;;;;;23.67;45.48;94144.31;5002554;28;8825;-63
2024/03/06 00:06:03;;;;;;;;;;;;;;;23.68;45.60;94148.56;5015346;28;9110;-65
2024/03/06 00:12:07;;;;;;;;;;;;;;;23.68;46.04;94150.56;4975732;28;7339;-65
2024/03/06 00:14:59;;;;;;;;;;;;;;;23.67;46.23;94160.03;4977165;28;9923;-68
2024/03/06 00:17:25;;;;;;;;;;;;;;;23.66;46.14;94161.28;4974449;28;9060;-68
2024/03/06 00:19:57;;;;;;;;;;;;;;;23.66;46.20;94162.03;4957238;28;7190;-68
2024/03/06 00:22:28;;;;;;;;;;;;;;;23.67;45.52;94158.03;4959025;28;9143;-68
2024/03/06 00:25:08;;;;;;;;;;;;;;;23.68;45.88;94165.03;4959591;28;8714;-68
2024/03/06 00:27:35;;;;;;;;;;;;;;;23.65;46.31;94168.03;4959340;28;9938;-68
2024/03/06 00:30:04;;;;;;;;;;;;;;;23.64;45.88;94158.31;4959490;28;9053;-68
2024/03/06 00:32:45;;;;;;;;;;;;;;;23.68;45.73;94167.78;4940237;28;8678;-68
2024/03/06 00:35:16;;;;;;;;;;;;;;;23.66;45.93;94167.50;4991631;28;9425;-69
2024/03/06 00:37:44;;;;;;;;;;;;;;;23.66;45.86;94166.78;5013142;28;9441;-68
2024/03/06 00:40:13;;;;;;;;;;;;;;;23.65;45.85;94170.78;5012086;28;9412;-68
2024/03/06 00:42:41;;;;;;;;;;;;;;;23.64;46.17;94167.28;5018730;28;9783;-68
2024/03/06 00:45:07;;;;;;;;;;;;;;;23.67;46.04;94173.75;5013185;28;7272;-68
2024/03/06 00:47:34;;;;;;;;;;;;;;;23.62;46.09;94161.53;5022427;28;9416;-68
2024/03/06 00:50:07;;;;;;;;;;;;;;;23.65;45.45;94173.50;5078242;28;9043;-68
2024/03/06 00:52:35;;;;;;;;;;;;;;;23.61;45.90;94175.78;5089636;28;9082;-68
2024/03/06 00:55:05;;;;;;;;;;;;;;;23.66;45.87;94186.00;5086963;28;7264;-68
2024/03/06 00:57:51;;;;;;;;;;;;;;;23.64;45.80;94185.75;5081451;28;8997;-68
2024/03/06 01:00:19;;;;;;;;;;;;;;;23.63;45.98;94196.00;5074319;28;9428;-68
2024/03/06 01:02:55;;;;;;;;;;;;;;;23.64;46.03;94197.47;5096299;28;9531;-68
2024/03/06 01:05:23;;;;;;;;;;;;;;;23.64;46.17;94199.50;5093321;28;9455;-68
2024/03/06 01:07:49;;;;;;;;;;;;;;;23.65;45.78;94200.97;5086972;28;8878;-68
2024/03/06 01:10:20;;;;;;;;;;;;;;;23.63;45.74;94198.72;5083057;28;8956;-69
2024/03/06 01:12:57;;;;;;;;;;;;;;;23.64;45.94;94194.00;5083078;28;8692;-68
2024/03/06 01:15:26;;;;;;;;;;;;;;;23.60;45.75;94185.25;5102238;28;9422;-69
2024/03/06 01:17:52;;;;;;;;;;;;;;;23.65;45.93;94192.72;5079965;28;9526;-69
2024/03/06 01:20:21;;;;;;;;;;;;;;;23.61;45.82;94192.25;5083145;28;9107;-69
2024/03/06 01:22:53;;;;;;;;;;;;;;;23.62;45.50;94191.00;5079235;28;9337;-68
2024/03/06 01:25:21;;;;;;;;;;;;;;;23.55;45.96;94195.00;5093072;28;9186;-68
2024/03/06 01:27:50;;;;;;;;;;;;;;;23.55;45.98;94189.53;5086007;28;9407;-68
2024/03/06 01:30:21;;;;;;;;;;;;;;;23.57;45.54;94189.78;5089554;28;9256;-68
2024/03/06 01:33:14;;;;;;;;;;;;;;;23.61;45.98;94192.25;5090334;28;9070;-68
2024/03/06 01:35:40;;;;;;;;;;;;;;;23.62;45.76;94199.97;5039506;28;9449;-68
2024/03/06 01:38:07;;;;;;;;;;;;;;;23.60;45.68;94199.72;5032145;28;9936;-68
2024/03/06 01:40:35;;;;;;;;;;;;;;;23.58;46.24;94193.25;5035717;28;10033;-68
2024/03/06 01:43:04;;;;;;;;;;;;;;;23.61;46.04;94197.75;5042973;28;8865;-68
2024/03/06 01:45:31;;;;;;;;;;;;;;;23.63;45.79;94200.72;5033554;28;8844;-68
2024/03/06 01:48:52;;;;;;;;;;;;;;;23.62;45.49;94189.00;5052615;28;9526;-68
2024/03/06 01:51:27;;;;;;;;;;;;;;;23.57;46.13;94186.28;4976332;28;9418;-69
2024/03/06 01:54:00;;;;;;;;;;;;;;;23.57;45.61;94180.78;4993525;28;8945;-68
2024/03/06 01:56:45;;;;;;;;;;;;;;;23.54;46.31;94181.78;4992812;28;8994;-69
2024/03/06 01:59:30;;;;;;;;;;;;;;;23.60;46.17;94179.75;4982825;28;8766;-68
2024/03/06 02:01:56;;;;;;;;;;;;;;;23.57;45.98;94186.28;4992435;28;8691;-68
2024/03/06 02:04:35;;;;;;;;;;;;;;;23.60;45.86;94171.53;4982450;28;7126;-68
2024/03/06 02:07:28;;;;;;;;;;;;;;;23.61;45.39;94162.03;4988887;28;9826;-68
2024/03/06 02:09:55;;;;;;;;;;;;;;;23.62;45.90;94163.56;4972379;28;9620;-68
2024/03/06 02:12:22;;;;;;;;;;;;;;;23.63;45.69;94167.78;5002902;28;9435;-68
2024/03/06 02:14:48;;;;;;;;;;;;;;;23.57;45.79;94170.56;5031231;28;8988;-68
2024/03/06 02:17:29;;;;;;;;;;;;;;;23.58;45.58;94176.75;5037969;28;8716;-68
2024/03/06 02:20:28;;;;;;;;;;;;;;;23.53;45.81;94178.28;5038207;28;9227;-68
2024/03/06 02:23:22;;;;;;;;;;;;;;;23.52;46.19;94173.28;5035930;28;9067;-68
2024/03/06 02:26:18;;;;;;;;;;;;;;;23.52;46.12;94167.81;5072045;28;9089;-68
2024/03/06 02:28:56;;;;;;;;;;;;;;;23.50;45.92;94176.53;5088174;28;9184;-68
2024/03/06 02:31:50;;;;;;;;;;;;;;;23.50;45.74;94173.06;5092638;28;8973;-68
2024/03/06 02:34:34;;;;;;;;;;;;;;;23.48;45.49;94170.06;5050479;28;7027;-63
2024/03/06 02:37:47;;;;;;;;;;;;;;;23.48;45.73;94170.06;5027008;28;9378;-61
2024/03/06 02:40:13;;;;;;;;;;;;;;;23.46;45.75;94167.81;4963553;28;9411;-61
2024/03/06 02:42:39;;;;;;;;;;;;;;;23.45;45.85;94174.56;4956654;28;9172;-61
2024/03/06 02:45:07;;;;;;;;;;;;;;;23.45;46.07;94177.28;4945735;28;9084;-61
2024/03/06 02:47:45;;;;;;;;;;;;;;;23.46;45.50;94180.78;4942045;28;8819;-61
2024/03/06 02:50:23;;;;;;;;;;;;;;;23.42;45.59;94170.09;4935138;29;8699;-60
2024/03/06 02:53:42;;;;;;;;;;;;;;;23.46;45.61;94170.56;4943688;28;7206;-61
2024/03/06 02:56:22;;;;;;;;;;;;;;;23.46;45.73;94170.56;4924174;29;8706;-61
2024/03/06 02:59:02;;;;;;;;;;;;;;;23.45;45.64;94176.53;4928668;29;8814;-61
2024/03/06 03:01:30;;;;;;;;;;;;;;;23.43;45.65;94171.56;4903603;29;8759;-61
2024/03/06 03:04:26;;;;;;;;;;;;;;;23.44;45.89;94169.56;4907386;29;9014;-61
2024/03/06 03:07:02;;;;;;;;;;;;;;;23.42;45.53;94170.09;4898993;29;7018;-61
2024/03/06 03:09:40;;;;;;;;;;;;;;;23.42;45.94;94167.34;4905255;29;9052;-61
2024/03/06 03:12:27;;;;;;;;;;;;;;;23.44;45.96;94178.56;4934491;28;9130;-61
2024/03/06 03:15:03;;;;;;;;;;;;;;;23.45;45.86;94177.28;4940703;28;9135;-61
2024/03/06 03:17:31;;;;;;;;;;;;;;;23.41;46.07;94173.31;4948451;28;9894;-61
2024/03/06 03:19:57;;;;;;;;;;;;;;;23.44;45.69;94181.31;4938829;28;9164;-61
2024/03/06 03:22:23;;;;;;;;;;;;;;;23.44;45.86;94177.81;4956193;28;8727;-61
2024/03/06 03:24:54;;;;;;;;;;;;;;;23.41;45.13;94181.53;4954803;28;7642;-61
2024/03/06 03:27:31;;;;;;;;;;;;;;;23.44;45.59;94189.53;4957327;28;9090;-61
2024/03/06 03:29:58;;;;;;;;;;;;;;;23.46;45.93;94186.28;4949594;28;9067;-61
2024/03/06 03:32:26;;;;;;;;;;;;;;;23.44;45.29;94178.56;4987247;28;9002;-61
2024/03/06 03:34:53;;;;;;;;;;;;;;;23.45;45.62;94188.28;4995858;28;8773;-61
2024/03/06 03:37:28;;;;;;;;;;;;;;;23.45;45.38;94184.78;4973699;28;9027;-61
2024/03/06 03:39:56;;;;;;;;;;;;;;;23.44;45.64;94184.06;4994299;28;9037;-61
2024/03/06 03:42:22;;;;;;;;;;;;;;;23.45;45.67;94195.75;4989282;28;8884;-61
2024/03/06 03:44:48;;;;;;;;;;;;;;;23.43;45.59;94196.25;5094177;28;9049;-60
2024/03/06 03:47:18;;;;;;;;;;;;;;;23.43;45.56;94198.25;5094208;28;7314;-60
2024/03/06 03:49:53;;;;;;;;;;;;;;;23.44;45.85;94191.53;5096227;28;8794;-60
2024/03/06 03:52:29;;;;;;;;;;;;;;;23.43;45.20;94195.50;5095548;28;8860;-61
2024/03/06 03:54:57;;;;;;;;;;;;;;;23.44;45.25;94199.75;5089992;28;8692;-60
2024/03/06 03:57:25;;;;;;;;;;;;;;;23.42;45.30;94203.00;5088558;28;9260;-61
2024/03/06 03:59:51;;;;;;;;;;;;;;;23.42;45.33;94199.53;5098311;28;7259;-60
2024/03/06 04:02:19;;;;;;;;;;;;;;;23.41;45.32;94209.75;5094902;28;9212;-60
2024/03/06 04:04:45;;;;;;;;;;;;;;;23.43;45.06;94201.00;5094016;28;9061;-60
2024/03/06 04:07:33;;;;;;;;;;;;;;;23.43;45.01;94198.25;5110504;28;8875;-60
2024/03/06 04:10:10;;;;;;;;;;;;;;;23.43;45.26;94198.25;5094903;28;9140;-60
2024/03/06 04:12:43;;;;;;;;;;;;;;;23.41;45.30;94200.75;5079719;28;7135;-60
2024/03/06 04:15:29;;;;;;;;;;;;;;;23.41;44.80;94200.75;5097679;28;9228;-60
2024/03/06 04:17:59;;;;;;;;;;;;;;;23.41;45.65;94203.50;5090919;28;9669;-60
2024/03/06 04:20:35;;;;;;;;;;;;;;;23.39;45.38;94209.50;5090938;28;9698;-60
2024/03/06 04:23:06;;;;;;;;;;;;;;;23.41;45.69;94209.00;5080855;28;9460;-60
2024/03/06 04:26:17;;;;;;;;;;;;;;;23.40;44.99;94208.25;5085970;28;8817;-60
2024/03/06 04:28:45;;;;;;;;;;;;;;;23.41;45.37;94211.72;5101409;28;9530;-60
2024/03/06 04:31:23;;;;;;;;;;;;;;;23.36;45.36;94202.25;5083314;28;8997;-60
2024/03/06 04:33:51;;;;;;;;;;;;;;;23.35;45.18;94203.50;5075340;28;9435;-60
2024/03/06 04:36:29;;;;;;;;;;;;;;;23.41;44.85;94217.22;5091913;28;8806;-60
2024/03/06 04:39:07;;;;;;;;;;;;;;;23.38;45.39;94210.00;5098816;28;9434;-60
2024/03/06 04:41:36;;;;;;;;;;;;;;;23.36;45.24;94210.47;5103032;28;8750;-60
2024/03/06 04:44:02;;;;;;;;;;;;;;;23.40;45.30;94215.75;5087564;28;9398;-60
2024/03/06 04:46:51;;;;;;;;;;;;;;;23.41;45.46;94222.72;5085556;28;9512;-61
2024/03/06 04:49:29;;;;;;;;;;;;;;;23.40;45.24;94226.72;5099028;28;9118;-60
2024/03/06 04:52:03;;;;;;;;;;;;;;;23.36;45.03;94218.00;5089758;28;8800;-60
2024/03/06 04:54:35;;;;;;;;;;;;;;;23.40;44.91;94227.47;5074778;28;9411;-65
2024/03/06 04:57:03;;;;;;;;;;;;;;;23.40;45.04;94230.22;5091565;28;9120;-65
2024/03/06 04:59:48;;;;;;;;;;;;;;;23.42;45.25;94235.19;5080998;28;7350;-65
2024/03/06 05:02:34;;;;;;;;;;;;;;;23.41;45.27;94244.66;5089944;28;9094;-66
2024/03/06 05:05:02;;;;;;;;;;;;;;;23.38;45.15;94246.41;5082493;28;9153;-66
2024/03/06 05:07:31;;;;;;;;;;;;;;;23.33;45.03;94235.41;5081978;28;9743;-66
2024/03/06 05:09:58;;;;;;;;;;;;;;;23.38;45.32;94245.69;5083897;28;9048;-66
2024/03/06 05:12:27;;;;;;;;;;;;;;;23.39;44.49;94239.69;5086891;28;9000;-66
2024/03/06 05:15:00;;;;;;;;;;;;;;;23.39;45.01;94247.16;5079026;28;6993;-66
2024/03/06 05:17:26;;;;;;;;;;;;;;;23.37;45.01;94244.94;5105554;28;9148;-66
2024/03/06 05:19:54;;;;;;;;;;;;;;;23.37;44.77;94249.66;5086481;28;9250;-66
2024/03/06 05:22:21;;;;;;;;;;;;;;;23.40;44.91;94248.69;5080190;28;8915;-66
2024/03/06 05:24:49;;;;;;;;;;;;;;;23.40;44.82;94254.16;5085244;28;9255;-61
2024/03/06 05:27:17;;;;;;;;;;;;;;;23.39;45.14;94263.63;5089905;28;9726;-64
2024/03/06 05:29:44;;;;;;;;;;;;;;;23.42;46.06;94273.63;5081691;28;7092;-64
2024/03/06 05:32:12;;;;;;;;;;;;;;;23.43;45.98;94278.59;5098415;28;9450;-63
2024/03/06 05:34:38;;;;;;;;;;;;;;;23.47;45.35;94275.63;5081133;28;9472;-64
2024/03/06 05:37:15;;;;;;;;;;;;;;;23.46;45.34;94276.88;5089655;28;9248;-64
2024/03/06 05:39:43;;;;;;;;;;;;;;;23.45;45.54;94278.84;5082230;28;9128;-65
2024/03/06 05:42:09;;;;;;;;;;;;;;;23.42;45.81;94284.59;5077465;28;9232;-65
2024/03/06 05:44:35;;;;;;;;;;;;;;;23.44;45.88;94288.34;5080405;28;7009;-65
2024/03/06 05:47:07;;;;;;;;;;;;;;;23.45;45.79;94294.56;5078963;28;8780;-68
2024/03/06 05:49:40;;;;;;;;;;;;;;;23.42;45.99;94282.63;5082215;28;8742;-66
2024/03/06 05:52:16;;;;;;;;;;;;;;;23.46;46.26;94293.34;5085076;28;9027;-67
2024/03/06 05:55:11;;;;;;;;;;;;;;;23.53;45.91;94301.06;5082680;28;9456;-67
2024/03/06 05:57:52;;;;;;;;;;;;;;;23.55;45.79;94301.31;5037888;28;9096;-64
2024/03/06 06:00:33;;;;;;;;;;;;;;;23.58;46.04;94303.81;5036277;28;8749;-65
2024/03/06 06:03:12;;;;;;;;;;;;;;;23.51;45.22;94309.06;5052653;28;9020;-65
2024/03/06 06:05:40;;;;;;;;;;;;;;;23.48;45.17;94307.31;5049255;28;9098;-65
2024/03/06 06:08:44;;;;;;;;;;;;;;;23.48;44.92;94307.31;5027875;28;9004;-65
2024/03/06 06:11:22;;;;;;;;;;;;;;;23.43;44.50;94314.28;4977216;28;7000;-65
2024/03/06 06:14:01;;;;;;;;;;;;;;;23.39;44.33;94313.78;4974397;28;7536;-65
2024/03/06 06:16:40;;;;;;;;;;;;;;;23.40;43.07;94325.53;4975983;28;8890;-64
2024/03/06 06:19:06;;;;;;;;;;;;;;;23.36;42.89;94319.53;4991515;28;8927;-71
2024/03/06 06:21:32;;;;;;;;;;;;;;;23.28;43.75;94319.22;4990737;28;8817;-70
2024/03/06 06:23:59;;;;;;;;;;;;;;;23.35;45.04;94323.50;4975240;28;9054;-69
2024/03/06 06:26:55;;;;;;;;;;;;;;;23.45;45.87;94330.25;4992717;28;9061;-70
2024/03/06 06:29:21;;;;;;;;;;;;;;;23.60;51.97;94333.50;4961045;28;7308;-69
2024/03/06 06:32:08;;;;;;;;;;;;;;;23.94;53.00;94337.75;4992860;28;9005;-71
2024/03/06 06:34:56;;;;;;;;;;;;;;;24.20;53.86;94332.75;5008793;28;9608;-71
2024/03/06 06:38:00;;;;;;;;;;;;;;;24.44;55.48;94338.44;5013716;28;9019;-72
2024/03/06 06:40:27;;;;;;;;;;;;;;;24.61;54.61;94346.63;4918815;29;8890;-72
2024/03/06 06:42:54;;;;;;;;;;;;;;;24.75;53.38;94351.09;4990662;28;9415;-73
2024/03/06 06:45:21;;;;;;;;;;;;;;;24.78;47.41;94335.59;4995822;28;9523;-67
2024/03/06 06:47:49;;;;;;;;;;;;;;;24.83;45.27;94345.81;5013437;28;8838;-66
2024/03/06 06:50:16;;;;;;;;;;;;;;;24.80;42.75;94355.09;5012598;28;9499;-68
2024/03/06 06:52:42;;;;;;;;;;;;;;;24.78;45.60;94341.84;4988119;28;8725;-68
2024/03/06 06:55:11;;;;;;;;;;;;;;;24.63;44.24;94350.38;5007645;28;9097;-71
2024/03/06 06:57:38;;;;;;;;;;;;;;;24.44;44.08;94348.69;4994370;28;9111;-70
2024/03/06 07:00:13;;;;;;;;;;;;;;;24.25;44.16;94348.47;4995817;28;7505;-70
2024/03/06 07:02:40;;;;;;;;;;;;;;;24.19;43.92;94358.72;4995895;28;8951;-70
2024/03/06 07:05:21;;;;;;;;;;;;;;;24.13;44.27;94349.00;5016406;28;8782;-63
2024/03/06 07:08:01;;;;;;;;;;;;;;;24.05;44.16;94357.00;4999157;28;9420;-63
2024/03/06 07:10:29;;;;;;;;;;;;;;;24.07;44.43;94365.50;4983137;28;9476;-63
2024/03/06 07:13:05;;;;;;;;;;;;;;;24.06;45.31;94372.22;4993877;28;9058;-63
2024/03/06 07:15:32;;;;;;;;;;;;;;;24.04;44.58;94360.22;5083402;28;7719;-63
2024/03/06 07:18:06;;;;;;;;;;;;;;;24.09;45.00;94363.00;5082835;28;9137;-62
2024/03/06 07:20:42;;;;;;;;;;;;;;;24.14;44.70;94372.47;5096714;28;9413;-63
2024/03/06 07:23:10;;;;;;;;;;;;;;;24.14;44.91;94359.47;5090350;28;8825;-63
2024/03/06 07:25:59;;;;;;;;;;;;;;;24.21;45.15;94358.22;5106009;28;9812;-62
2024/03/06 07:28:31;;;;;;;;;;;;;;;24.26;44.79;94368.47;5077965;28;9146;-62
2024/03/06 07:31:17;;;;;;;;;;;;;;;24.26;44.74;94366.47;5111236;28;9372;-63
2024/03/06 07:33:44;;;;;;;;;;;;;;;24.29;43.68;94375.72;5089416;28;9033;-64
2024/03/06 07:36:16;;;;;;;;;;;;;;;24.33;44.32;94376.94;5094133;28;9168;-63
2024/03/06 07:38:44;;;;;;;;;;;;;;;24.36;44.79;94370.44;5078019;28;9112;-63
2024/03/06 07:41:12;;;;;;;;;;;;;;;24.37;44.68;94371.94;5089776;28;8800;-62
2024/03/06 07:43:38;;;;;;;;;;;;;;;24.38;43.90;94370.69;5083343;28;8793;-62
2024/03/06 07:46:10;;;;;;;;;;;;;;;24.47;44.45;94377.91;5094621;28;9495;-63
2024/03/06 07:49:08;;;;;;;;;;;;;;;24.50;44.31;94377.66;5095243;28;9420;-62
2024/03/06 07:52:06;;;;;;;;;;;;;;;24.51;43.71;94381.16;5034165;28;9835;-62
2024/03/06 07:54:33;;;;;;;;;;;;;;;24.54;43.39;94388.38;4978535;28;7122;-63
2024/03/06 07:57:09;;;;;;;;;;;;;;;24.56;43.64;94389.38;4983969;28;9027;-63
2024/03/06 07:59:49;;;;;;;;;;;;;;;24.58;43.47;94397.13;4978876;28;8610;-62
2024/03/06 08:02:29;;;;;;;;;;;;;;;24.59;43.83;94393.91;4994512;28;9459;-63
2024/03/06 08:04:58;;;;;;;;;;;;;;;24.59;43.38;94399.41;4993789;28;8771;-63
2024/03/06 08:07:23;;;;;;;;;;;;;;;24.59;43.75;94399.41;4976824;28;8721;-63
2024/03/06 08:09:49;;;;;;;;;;;;;;;24.60;43.91;94403.63;4978714;28;9710;-63
2024/03/06 08:12:17;;;;;;;;;;;;;;;24.59;43.52;94404.91;4987671;28;8775;-63
2024/03/06 08:14:50;;;;;;;;;;;;;;;24.56;43.84;94411.38;4994707;28;9271;-64
2024/03/06 08:17:22;;;;;;;;;;;;;;;24.56;43.81;94414.13;4977987;28;8959;-64
2024/03/06 08:19:59;;;;;;;;;;;;;;;24.50;44.51;94407.91;4995173;28;8963;-64
2024/03/06 08:22:25;;;;;;;;;;;;;;;24.45;43.80;94405.91;4977361;28;9794;-64
2024/03/06 08:25:28;;;;;;;;;;;;;;;24.40;43.93;94412.16;4995051;28;9135;-64
2024/03/06 08:27:56;;;;;;;;;;;;;;;24.34;44.75;94416.91;4919962;28;9108;-65
2024/03/06 08:30:23;;;;;;;;;;;;;;;24.28;44.93;94421.69;4974364;28;9051;-64
2024/03/06 08:33:25;;;;;;;;;;;;;;;24.22;44.50;94426.44;5013785;28;9008;-64
2024/03/06 08:36:03;;;;;;;;;;;;;;;24.16;44.77;94431.19;5010396;28;9035;-64
2024/03/06 08:38:40;;;;;;;;;;;;;;;24.05;44.82;94427.69;5010083;28;9434;-64
2024/03/06 08:41:06;;;;;;;;;;;;;;;23.94;45.30;94426.41;4996898;28;7350;-64
2024/03/06 08:43:35;;;;;;;;;;;;;;;23.87;45.28;94428.91;4997478;28;9095;-64
2024/03/06 08:46:03;;;;;;;;;;;;;;;23.87;45.35;94437.13;4997172;28;9336;-64
2024/03/06 08:48:49;;;;;;;;;;;;;;;23.83;46.23;94436.63;4997218;28;9135;-64
2024/03/06 08:51:15;;;;;;;;;;;;;;;23.77;46.05;94442.09;5007290;28;8670;-64
2024/03/06 08:53:52;;;;;;;;;;;;;;;23.66;46.13;94442.09;4994447;28;9123;-64
2024/03/06 08:56:34;;;;;;;;;;;;;;;23.68;46.18;94438.88;5002976;28;9366;-64
2024/03/06 08:59:15;;;;;;;;;;;;;;;23.65;46.07;94450.84;5013629;28;8730;-64
2024/03/06 09:01:54;;;;;;;;;;;;;;;23.63;45.87;94461.56;5027278;28;9167;-64
2024/03/06 09:04:22;;;;;;;;;;;;;;;23.63;46.07;94461.56;5098101;28;7143;-64
2024/03/06 09:07:06;;;;;;;;;;;;;;;23.57;46.66;94456.06;5084826;28;9101;-64
2024/03/06 09:09:33;;;;;;;;;;;;;;;23.56;46.16;94459.28;5090759;28;7305;-64
2024/03/06 09:12:04;;;;;;;;;;;;;;;23.47;46.33;94449.28;5109904;28;8696;-64
2024/03/06 09:14:33;;;;;;;;;;;;;;;23.48;46.47;94456.28;5101045;28;8680;-64
2024/03/06 09:17:00;;;;;;;;;;;;;;;23.42;46.39;94447.31;5085592;28;8757;-64
2024/03/06 09:19:39;;;;;;;;;;;;;;;23.48;47.11;94463.78;5094423;28;9459;-64
2024/03/06 09:22:15;;;;;;;;;;;;;;;23.48;46.99;94458.28;5093503;28;9724;-63
2024/03/06 09:24:49;;;;;;;;;;;;;;;23.51;47.47;94457.31;5099788;28;9892;-62
2024/03/06 09:27:17;;;;;;;;;;;;;;;23.48;47.10;94458.28;5083152;28;8755;-62
2024/03/06 09:29:50;;;;;;;;;;;;;;;23.47;46.86;94462.28;5091023;28;9108;-60
2024/03/06 09:32:19;;;;;;;;;;;;;;;23.46;47.17;94467.03;5082802;28;7247;-61
2024/03/06 09:34:55;;;;;;;;;;;;;;;23.47;47.20;94459.53;5082595;28;8765;-62
2024/03/06 09:37:21;;;;;;;;;;;;;;;23.44;47.61;94466.00;5080166;28;7284;-61
2024/03/06 09:39:47;;;;;;;;;;;;;;;23.42;46.94;94472.00;5079927;28;9287;-62
2024/03/06 09:42:18;;;;;;;;;;;;;;;23.44;47.33;94466.00;5093624;28;9457;-63
2024/03/06 09:44:49;;;;;;;;;;;;;;;23.45;47.72;94470.25;5079904;28;8887;-62
2024/03/06 09:47:30;;;;;;;;;;;;;;;23.38;47.95;94470.75;5081146;28;9323;-62
2024/03/06 09:50:09;;;;;;;;;;;;;;;23.40;48.19;94471.00;5078195;28;8999;-63
2024/03/06 09:52:43;;;;;;;;;;;;;;;23.40;48.56;94476.47;5078818;28;9013;-63
2024/03/06 09:55:09;;;;;;;;;;;;;;;23.41;48.04;94472.47;5081536;28;9077;-63
2024/03/06 09:57:37;;;;;;;;;;;;;;;23.42;48.66;94471.25;5102070;28;9388;-64
2024/03/06 10:00:06;;;;;;;;;;;;;;;23.47;49.29;94478.75;5088372;28;9002;-64
2024/03/06 10:02:54;;;;;;;;;;;;;;;23.58;54.08;94481.50;5095897;28;9012;-64
2024/03/06 10:05:23;;;;;;;;;;;;;;;23.84;53.79;94482.06;5081836;28;8674;-64
2024/03/06 10:08:16;;;;;;;;;;;;;;;24.06;52.25;94489.63;5092621;28;9033;-65
2024/03/06 10:10:43;;;;;;;;;;;;;;;24.19;51.43;94476.91;5089805;28;7229;-63
2024/03/06 10:13:17;;;;;;;;;;;;;;;24.33;50.84;94486.91;5076162;28;8910;-65
2024/03/06 10:16:02;;;;;;;;;;;;;;;24.42;50.28;94494.91;5086520;28;9072;-65
2024/03/06 10:18:41;;;;;;;;;;;;;;;24.49;46.95;94497.13;5080603;28;7184;-66
2024/03/06 10:21:08;;;;;;;;;;;;;;;24.52;47.73;94487.88;5096268;28;8835;-66
2024/03/06 10:23:37;;;;;;;;;;;;;;;24.33;45.50;94492.41;5089369;28;9377;-61
2024/03/06 10:26:07;;;;;;;;;;;;;;;24.08;46.33;94485.13;5084410;28;8963;-61
2024/03/06 10:28:52;;;;;;;;;;;;;;;23.90;45.80;94491.09;5093526;28;9277;-61
2024/03/06 10:31:32;;;;;;;;;;;;;;;23.77;45.95;94490.81;5101967;28;9439;-61
2024/03/06 10:34:02;;;;;;;;;;;;;;;23.61;46.47;94488.75;5072612;28;8820;-61
2024/03/06 10:36:37;;;;;;;;;;;;;;;23.60;46.33;94495.50;5092899;28;7018;-61
2024/03/06 10:39:03;;;;;;;;;;;;;;;23.50;46.43;94494.22;5090338;28;8855;-61
2024/03/06 10:41:35;;;;;;;;;;;;;;;23.44;47.05;94493.47;5097643;28;7307;-61
2024/03/06 10:44:06;;;;;;;;;;;;;;;23.38;47.27;94481.72;5092853;28;9163;-61
2024/03/06 10:47:09;;;;;;;;;;;;;;;23.39;47.02;94492.19;5084808;28;9060;-61
2024/03/06 10:49:55;;;;;;;;;;;;;;;23.39;47.88;94489.44;5033166;28;9493;-61
2024/03/06 10:52:42;;;;;;;;;;;;;;;23.43;47.25;94494.69;5037423;28;8942;-61
2024/03/06 10:55:27;;;;;;;;;;;;;;;23.40;47.39;94490.19;5021838;28;8781;-62
2024/03/06 10:58:13;;;;;;;;;;;;;;;23.40;47.57;94501.94;5029439;28;9493;-62
2024/03/06 11:01:12;;;;;;;;;;;;;;;23.38;47.57;94503.66;5029981;28;8882;-62
2024/03/06 11:03:54;;;;;;;;;;;;;;;23.39;47.44;94502.41;4967913;28;9692;-61
2024/03/06 11:06:22;;;;;;;;;;;;;;;23.37;47.15;94504.91;4969978;28;8864;-61
2024/03/06 11:08:56;;;;;;;;;;;;;;;23.34;47.38;94497.66;4966747;28;9218;-62
2024/03/06 11:11:49;;;;;;;;;;;;;;;23.43;47.42;94494.69;4964946;28;9270;-61
2024/03/06 11:14:31;;;;;;;;;;;;;;;23.45;47.84;94498.44;4952010;28;7025;-65
2024/03/06 11:17:11;;;;;;;;;;;;;;;23.47;47.32;94501.44;4963913;28;9437;-63
2024/03/06 11:20:09;;;;;;;;;;;;;;;23.45;47.54;94497.69;4955318;28;8650;-66
2024/03/06 11:23:09;;;;;;;;;;;;;;;23.43;47.30;94505.66;4968774;28;7270;-64
2024/03/06 11:26:14;;;;;;;;;;;;;;;23.42;47.32;94493.19;4991476;28;9077;-65
2024/03/06 11:28:56;;;;;;;;;;;;;;;23.43;47.32;94502.91;5007863;28;9175;-65
2024/03/06 11:31:35;;;;;;;;;;;;;;;23.45;47.10;94500.44;5018108;28;9438;-65
2024/03/06 11:34:56;;;;;;;;;;;;;;;23.49;47.14;94504.44;4987571;28;7276;-65
2024/03/06 11:37:36;;;;;;;;;;;;;;;23.51;47.25;94501.94;4909930;29;7263;-65
2024/03/06 11:40:08;;;;;;;;;;;;;;;23.52;47.33;94505.47;4925800;28;9080;-65
2024/03/06 11:42:35;;;;;;;;;;;;;;;23.50;47.64;94503.22;4986377;28;9428;-65
2024/03/06 11:45:13;;;;;;;;;;;;;;;23.54;47.63;94513.94;4961414;28;9526;-64
2024/03/06 11:48:24;;;;;;;;;;;;;;;23.57;46.91;94512.97;4968963;28;9840;-64
2024/03/06 11:50:51;;;;;;;;;;;;;;;23.54;46.73;94506.47;4975730;28;9553;-64
2024/03/06 11:53:20;;;;;;;;;;;;;;;23.49;47.08;94504.44;4974279;28;9195;-64
2024/03/06 11:55:59;;;;;;;;;;;;;;;23.44;47.36;94507.19;4974444;28;7040;-62
2024/03/06 11:58:41;;;;;;;;;;;;;;;23.41;47.26;94508.91;4986799;28;9229;-62
2024/03/06 12:01:09;;;;;;;;;;;;;;;23.39;48.00;94507.91;4968187;28;7202;-61
2024/03/06 12:03:35;;;;;;;;;;;;;;;23.36;48.00;94506.16;4987395;28;9315;-61
2024/03/06 12:06:35;;;;;;;;;;;;;;;23.36;47.55;94509.63;4978400;28;8789;-60
2024/03/06 12:09:18;;;;;;;;;;;;;;;23.35;47.76;94497.16;4969778;28;9427;-61
2024/03/06 12:11:56;;;;;;;;;;;;;;;23.38;47.95;94489.94;5045980;28;9312;-60
2024/03/06 12:14:30;;;;;;;;;;;;;;;23.38;47.40;94496.16;5084505;28;9897;-61
2024/03/06 12:17:16;;;;;;;;;;;;;;;23.36;48.05;94484.94;5081861;28;9376;-61
2024/03/06 12:19:55;;;;;;;;;;;;;;;23.42;47.80;94493.97;5093558;28;8931;-60
2024/03/06 12:22:30;;;;;;;;;;;;;;;23.45;47.86;94489.44;5091551;28;7655;-61
2024/03/06 12:25:00;;;;;;;;;;;;;;;23.48;47.70;94491.22;5086501;28;8863;-61
2024/03/06 12:27:28;;;;;;;;;;;;;;;23.46;47.38;94483.50;5086211;28;7236;-61
2024/03/06 12:29:56;;;;;;;;;;;;;;;23.44;47.73;94479.72;5101240;28;9030;-60
2024/03/06 12:32:29;;;;;;;;;;;;;;;23.47;47.39;94492.47;5087561;28;8754;-60
2024/03/06 12:35:01;;;;;;;;;;;;;;;23.46;48.43;94497.22;5085876;28;8645;-60
2024/03/06 12:37:35;;;;;;;;;;;;;;;23.50;47.55;94491.47;5090572;28;9498;-60
2024/03/06 12:40:13;;;;;;;;;;;;;;;23.49;47.54;94493.47;5098061;28;9474;-61
2024/03/06 12:42:39;;;;;;;;;;;;;;;23.49;47.48;94487.97;5096962;28;9147;-61
2024/03/06 12:45:07;;;;;;;;;;;;;;;23.50;47.59;94491.47;5088613;28;9090;-61
2024/03/06 12:47:49;;;;;;;;;;;;;;;23.51;47.60;94482.00;5090406;28;9367;-60
2024/03/06 12:50:21;;;;;;;;;;;;;;;23.52;48.00;94486.25;5086954;28;8930;-60
2024/03/06 12:52:47;;;;;;;;;;;;;;;23.50;47.64;94494.22;5084092;28;8726;-61
2024/03/06 12:55:14;;;;;;;;;;;;;;;23.50;48.03;94484.00;5102648;28;9081;-61
2024/03/06 12:57:41;;;;;;;;;;;;;;;23.52;47.56;94489.75;5102287;28;7467;-61
2024/03/06 13:00:15;;;;;;;;;;;;;;;23.49;48.09;94473.53;5086824;28;8567;-61
2024/03/06 13:02:45;;;;;;;;;;;;;;;23.50;47.56;94484.00;5096998;28;9380;-62
2024/03/06 13:05:13;;;;;;;;;;;;;;;23.51;47.56;94487.50;5076664;28;9147;-62
2024/03/06 13:07:42;;;;;;;;;;;;;;;23.52;47.74;94478.75;5077406;28;9406;-61
2024/03/06 13:10:11;;;;;;;;;;;;;;;23.51;47.81;94476.53;5093002;28;8709;-60
2024/03/06 13:12:38;;;;;;;;;;;;;;;23.50;47.83;94480.50;5078917;28;9444;-60
2024/03/06 13:15:07;;;;;;;;;;;;;;;23.50;47.85;94483.25;5093591;28;8757;-62
2024/03/06 13:17:42;;;;;;;;;;;;;;;23.50;47.79;94484.00;5082618;28;8857;-62
2024/03/06 13:20:20;;;;;;;;;;;;;;;23.51;47.96;94482.00;5086764;28;9008;-62
2024/03/06 13:22:47;;;;;;;;;;;;;;;23.52;47.75;94483.50;5082549;28;8734;-61
2024/03/06 13:25:14;;;;;;;;;;;;;;;23.54;48.05;94490.00;5083936;28;9161;-62
2024/03/06 13:28:08;;;;;;;;;;;;;;;23.54;48.05;94491.97;5074527;28;9158;-61
2024/03/06 13:30:47;;;;;;;;;;;;;;;23.49;48.14;94490.00;5087351;28;7176;-60
2024/03/06 13:33:14;;;;;;;;;;;;;;;23.49;47.78;94490.72;5082330;28;9233;-60
2024/03/06 13:36:01;;;;;;;;;;;;;;;23.46;45.67;94488.22;5081092;28;8861;-60
2024/03/06 13:38:28;;;;;;;;;;;;;;;23.42;46.04;94484.97;5083403;28;8737;-60
2024/03/06 13:40:54;;;;;;;;;;;;;;;23.42;45.88;94493.19;5091425;28;8582;-65
2024/03/06 13:43:23;;;;;;;;;;;;;;;23.38;46.66;94481.72;5076635;28;7299;-65